Time;durP1;ratioP1;P1;durP2;ratioP2;P2;SDS_P1;SDS_P2;PMS_P1;PMS_P2;Temp;Humidity;BMP_temperature;BMP_pressure;BME280_temperature;BME280_humidity;BME280_pressure;Samples;Min_cycle;Max_cycle;Signal;HPM_P1;HPM_P2
2022/07/17 00:00:31;;;;;;;10.90;3.57;;;13.40;91.20;;;;;;5052861;28;20543;-63
2022/07/17 00:02:58;;;;;;;6.77;3.07;;;13.30;91.20;;;;;;5052940;28;20444;-63
2022/07/17 00:05:27;;;;;;;7.93;2.87;;;13.30;91.40;;;;;;5052806;28;20467;-63
2022/07/17 00:07:54;;;;;;;5.00;2.13;;;13.20;91.60;;;;;;5052593;28;20527;-63
2022/07/17 00:10:21;;;;;;;6.00;2.67;;;13.20;91.70;;;;;;5052785;28;20506;-63
2022/07/17 00:12:49;;;;;;;3.60;2.10;;;13.10;91.80;;;;;;5052718;28;20852;-62
2022/07/17 00:15:16;;;;;;;8.30;2.30;;;13.00;91.90;;;;;;5052579;28;20567;-63
2022/07/17 00:17:43;;;;;;;4.83;2.40;;;12.90;92.10;;;;;;5052562;28;20448;-63
2022/07/17 00:20:12;;;;;;;4.47;2.00;;;12.90;92.30;;;;;;5052629;28;20448;-63
2022/07/17 00:22:42;;;;;;;6.93;3.23;;;12.80;92.50;;;;;;5052227;28;20456;-63
2022/07/17 00:25:11;;;;;;;8.67;2.20;;;12.80;92.80;;;;;;5053323;28;20487;-63
2022/07/17 00:27:38;;;;;;;5.13;2.37;;;12.70;92.90;;;;;;5056686;28;20455;-63
2022/07/17 00:30:07;;;;;;;4.60;2.30;;;12.70;93.00;;;;;;5056733;28;20455;-63
2022/07/17 00:32:34;;;;;;;5.43;2.23;;;12.70;93.20;;;;;;5056648;28;20452;-63
2022/07/17 00:35:02;;;;;;;4.83;1.97;;;12.60;93.30;;;;;;5056554;28;20846;-63
2022/07/17 00:37:29;;;;;;;7.87;2.50;;;12.60;93.50;;;;;;5056265;28;20452;-63
2022/07/17 00:39:58;;;;;;;5.23;2.43;;;12.60;93.60;;;;;;5056216;28;20543;-63
2022/07/17 00:42:25;;;;;;;3.03;2.23;;;12.50;93.80;;;;;;5056497;28;20977;-63
2022/07/17 00:44:52;;;;;;;5.23;2.10;;;12.50;93.90;;;;;;5056096;28;20988;-63
2022/07/17 00:47:21;;;;;;;5.83;2.80;;;12.40;94.10;;;;;;5056089;28;20535;-63
2022/07/17 00:49:49;;;;;;;3.93;2.60;;;12.40;94.20;;;;;;5056097;28;20451;-62
2022/07/17 00:52:18;;;;;;;4.50;2.40;;;12.30;94.40;;;;;;5056092;28;21033;-63
2022/07/17 00:54:46;;;;;;;5.20;2.67;;;12.30;94.70;;;;;;5056387;28;20515;-63
2022/07/17 00:57:16;;;;;;;6.67;2.77;;;12.30;94.90;;;;;;5056016;28;20482;-63
2022/07/17 00:59:44;;;;;;;5.00;2.80;;;12.30;95.10;;;;;;5056245;28;20506;-63
2022/07/17 01:02:13;;;;;;;6.20;2.83;;;12.30;95.30;;;;;;5056261;28;20498;-62
2022/07/17 01:04:41;;;;;;;6.30;2.60;;;12.20;95.50;;;;;;5056136;28;20435;-63
2022/07/17 01:07:08;;;;;;;6.43;3.77;;;12.20;95.80;;;;;;5055869;28;20432;-62
2022/07/17 01:09:36;;;;;;;6.40;2.67;;;12.10;95.90;;;;;;5056424;28;20448;-62
2022/07/17 01:12:03;;;;;;;4.87;2.80;;;12.10;96.20;;;;;;5055759;28;20490;-62
2022/07/17 01:14:33;;;;;;;6.50;3.20;;;12.10;96.40;;;;;;5055565;28;20471;-62
2022/07/17 01:17:01;;;;;;;4.10;2.40;;;12.00;96.60;;;;;;5055861;28;20479;-63
2022/07/17 01:19:29;;;;;;;3.37;2.50;;;12.00;96.80;;;;;;5055547;28;21045;-63
2022/07/17 01:21:57;;;;;;;6.70;3.00;;;12.00;96.90;;;;;;5055910;28;20603;-63
2022/07/17 01:24:25;;;;;;;4.60;2.47;;;11.90;96.90;;;;;;5055572;28;20498;-63
2022/07/17 01:26:52;;;;;;;4.10;2.50;;;11.90;97.10;;;;;;5055285;28;20983;-63
2022/07/17 01:29:19;;;;;;;6.07;2.90;;;11.90;97.20;;;;;;5055307;28;20811;-61
2022/07/17 01:31:47;;;;;;;4.53;2.30;;;11.90;97.40;;;;;;5055227;28;20479;-63
2022/07/17 01:34:14;;;;;;;4.80;2.40;;;11.90;97.50;;;;;;5055155;28;20530;-63
2022/07/17 01:36:41;;;;;;;9.20;2.80;;;11.80;97.60;;;;;;5054568;28;20523;-62
2022/07/17 01:39:10;;;;;;;8.87;2.70;;;11.80;97.70;;;;;;5055443;28;20448;-63
2022/07/17 01:41:37;;;;;;;5.20;2.97;;;11.80;97.90;;;;;;5055169;28;20502;-63
2022/07/17 01:44:06;;;;;;;13.80;3.77;;;11.70;98.10;;;;;;5055114;28;20497;-63
2022/07/17 01:46:33;;;;;;;3.20;2.47;;;11.70;98.10;;;;;;5055334;28;20817;-62
2022/07/17 01:49:02;;;;;;;7.00;2.83;;;11.70;98.20;;;;;;5055242;28;20482;-63
2022/07/17 01:51:29;;;;;;;5.50;2.43;;;11.60;98.40;;;;;;5054997;28;20448;-63
2022/07/17 01:53:58;;;;;;;6.23;3.17;;;11.60;98.60;;;;;;5054954;28;20444;-63
2022/07/17 01:56:26;;;;;;;4.43;2.57;;;11.60;98.80;;;;;;5095250;22;20521;-62
2022/07/17 01:58:53;;;;;;;4.77;2.67;;;11.60;99.00;;;;;;5098885;28;20579;-62
2022/07/17 02:01:21;;;;;;;5.27;2.67;;;11.60;99.00;;;;;;5098761;28;20481;-62
2022/07/17 02:03:48;;;;;;;3.47;2.50;;;11.60;99.00;;;;;;5098226;28;20447;-62
2022/07/17 02:06:15;;;;;;;6.70;3.30;;;11.60;99.10;;;;;;5096760;28;21027;-62
2022/07/17 02:08:43;;;;;;;4.40;2.60;;;11.60;99.10;;;;;;5096968;28;20861;-62
2022/07/17 02:11:10;;;;;;;4.63;2.47;;;11.50;99.10;;;;;;5097286;28;20804;-62
2022/07/17 02:13:38;;;;;;;3.70;2.20;;;11.50;99.30;;;;;;5099187;28;20464;-62
2022/07/17 02:16:06;;;;;;;5.13;2.50;;;11.50;99.40;;;;;;5097775;28;20478;-61
2022/07/17 02:18:34;;;;;;;6.17;2.63;;;11.50;99.50;;;;;;5096044;28;21029;-62
2022/07/17 02:21:01;;;;;;;8.97;2.50;;;11.50;99.80;;;;;;5095588;28;20482;-62
2022/07/17 02:23:29;;;;;;;3.03;2.30;;;11.40;99.60;;;;;;5096806;28;20595;-62
2022/07/17 02:25:56;;;;;;;3.93;2.50;;;11.40;99.80;;;;;;5095181;28;20481;-62
2022/07/17 02:28:23;;;;;;;10.53;3.20;;;11.30;99.90;;;;;;5095270;28;20862;-62
2022/07/17 02:30:52;;;;;;;7.50;3.00;;;11.30;99.90;;;;;;5095191;28;20446;-62
2022/07/17 02:33:19;;;;;;;8.57;3.37;;;11.20;99.90;;;;;;5094824;28;20511;-62
2022/07/17 02:35:47;;;;;;;4.83;2.40;;;11.20;99.90;;;;;;5094626;28;20532;-62
2022/07/17 02:38:14;;;;;;;5.03;2.50;;;11.10;99.90;;;;;;5095241;28;20529;-62
2022/07/17 02:40:42;;;;;;;6.13;2.30;;;11.10;99.90;;;;;;5095526;28;20500;-63
2022/07/17 02:43:09;;;;;;;8.57;2.50;;;11.10;99.90;;;;;;5094338;28;20442;-61
2022/07/17 02:45:37;;;;;;;7.93;2.67;;;11.10;99.90;;;;;;5094690;28;20495;-62
2022/07/17 02:48:06;;;;;;;5.47;2.67;;;11.10;99.90;;;;;;5098159;28;20466;-61
2022/07/17 02:50:33;;;;;;;6.43;2.87;;;11.10;99.90;;;;;;5095754;28;20493;-61
2022/07/17 02:53:00;;;;;;;6.53;2.43;;;11.00;99.90;;;;;;5094741;28;20446;-61
2022/07/17 02:55:28;;;;;;;9.77;3.50;;;11.00;99.90;;;;;;5094939;28;20466;-61
2022/07/17 02:57:55;;;;;;;5.30;2.57;;;11.10;99.90;;;;;;5094108;28;20455;-62
2022/07/17 03:00:22;;;;;;;6.77;2.67;;;11.00;99.90;;;;;;5094392;28;20481;-61
2022/07/17 03:02:50;;;;;;;4.73;2.37;;;11.10;99.90;;;;;;5094335;28;20470;-62
2022/07/17 03:05:18;;;;;;;5.40;2.80;;;11.10;99.90;;;;;;5093982;28;20496;-62
2022/07/17 03:07:46;;;;;;;3.90;3.03;;;11.10;99.90;;;;;;5093911;28;20544;-61
2022/07/17 03:10:14;;;;;;;5.03;2.60;;;11.10;99.90;;;;;;5094217;28;20464;-61
2022/07/17 03:12:42;;;;;;;3.30;2.27;;;11.10;99.90;;;;;;5094177;28;20867;-62
2022/07/17 03:15:10;;;;;;;4.23;2.13;;;11.10;99.90;;;;;;5094005;28;20478;-61
2022/07/17 03:17:39;;;;;;;3.60;2.17;;;11.10;99.90;;;;;;5094013;28;20511;-62
2022/07/17 03:20:08;;;;;;;6.17;2.43;;;11.10;99.90;;;;;;5094055;28;20495;-62
2022/07/17 03:22:37;;;;;;;3.27;2.50;;;11.10;99.90;;;;;;5093654;28;20873;-62
2022/07/17 03:25:05;;;;;;;7.83;2.63;;;11.10;99.90;;;;;;5093811;28;20503;-61
2022/07/17 03:27:33;;;;;;;4.90;2.37;;;11.10;99.90;;;;;;5093921;28;20492;-62
2022/07/17 03:30:00;;;;;;;6.03;2.63;;;11.10;99.90;;;;;;5093518;28;20981;-62
2022/07/17 03:32:28;;;;;;;6.27;2.37;;;11.10;99.90;;;;;;5093604;28;20533;-62
2022/07/17 03:34:55;;;;;;;7.50;3.10;;;11.10;99.90;;;;;;5093787;28;20454;-62
2022/07/17 03:37:22;;;;;;;6.50;2.53;;;11.20;99.90;;;;;;5093668;28;20462;-62
2022/07/17 03:39:51;;;;;;;3.93;2.50;;;11.20;99.90;;;;;;5093442;28;20442;-62
2022/07/17 03:42:18;;;;;;;10.53;2.30;;;11.20;99.90;;;;;;5093621;28;20438;-61
2022/07/17 03:44:45;;;;;;;4.13;2.43;;;11.20;99.90;;;;;;5093543;28;20507;-62
2022/07/17 03:47:13;;;;;;;5.20;2.93;;;11.20;99.90;;;;;;5093475;28;20945;-62
2022/07/17 03:49:40;;;;;;;4.03;2.50;;;11.30;99.90;;;;;;5093633;28;20511;-62
2022/07/17 03:52:08;;;;;;;6.40;2.77;;;11.30;99.90;;;;;;5093189;28;20443;-62
2022/07/17 03:54:35;;;;;;;10.33;2.70;;;11.30;99.90;;;;;;5093186;28;20481;-62
2022/07/17 03:57:04;;;;;;;4.53;2.30;;;11.40;99.90;;;;;;5092856;28;20518;-62
2022/07/17 03:59:31;;;;;;;5.40;2.37;;;11.50;99.90;;;;;;5093180;28;20442;-62
2022/07/17 04:01:58;;;;;;;5.10;2.30;;;11.50;99.90;;;;;;5093056;28;20540;-62
2022/07/17 04:04:25;;;;;;;6.37;2.00;;;11.70;99.90;;;;;;5093070;28;20961;-62
2022/07/17 04:10:00;;;;;;;5.57;2.60;;;12.40;99.90;;;;;;5091128;27;20603;-62
2022/07/17 04:12:28;;;;;;;3.77;1.67;;;13.10;99.90;;;;;;5090487;28;20486;-63
2022/07/17 04:14:56;;;;;;;5.20;1.73;;;13.80;99.90;;;;;;5090891;28;20485;-63
2022/07/17 04:17:23;;;;;;;5.17;1.70;;;14.50;98.60;;;;;;5090397;28;20502;-63
2022/07/17 04:19:51;;;;;;;4.30;2.10;;;15.10;97.00;;;;;;5090275;28;20529;-62
2022/07/17 04:22:18;;;;;;;6.73;2.07;;;15.70;95.10;;;;;;5090284;28;20447;-62
2022/07/17 04:24:46;;;;;;;4.87;2.23;;;16.10;93.40;;;;;;5101447;28;20468;-62
2022/07/17 04:27:14;;;;;;;8.77;2.40;;;16.40;92.00;;;;;;5105378;28;20462;-62
2022/07/17 04:29:42;;;;;;;5.50;2.20;;;16.60;91.30;;;;;;5097700;28;20477;-62
2022/07/17 04:32:09;;;;;;;3.47;1.47;;;16.90;90.20;;;;;;5090518;28;20529;-62
2022/07/17 04:34:37;;;;;;;3.23;1.77;;;17.40;87.20;;;;;;5090075;28;20443;-62
2022/07/17 04:37:05;;;;;;;6.13;2.07;;;17.60;83.90;;;;;;5089907;28;20473;-62
2022/07/17 04:39:32;;;;;;;3.53;1.60;;;17.70;81.70;;;;;;5090105;28;20478;-62
2022/07/17 04:41:59;;;;;;;5.53;2.07;;;17.60;80.60;;;;;;5090307;28;20511;-62
2022/07/17 04:44:28;;;;;;;7.00;1.90;;;17.50;79.70;;;;;;5089954;28;20557;-61
2022/07/17 04:46:56;;;;;;;3.37;2.20;;;17.20;79.30;;;;;;5090249;28;20510;-63
2022/07/17 04:49:23;;;;;;;5.73;1.87;;;16.80;79.60;;;;;;5090251;28;20482;-61
2022/07/17 04:51:51;;;;;;;5.60;1.77;;;16.50;80.40;;;;;;5089628;28;20447;-61
2022/07/17 04:54:18;;;;;;;3.20;1.80;;;16.20;81.20;;;;;;5089812;28;20481;-63
2022/07/17 04:56:45;;;;;;;5.77;1.97;;;15.90;82.20;;;;;;5089915;28;20466;-62
2022/07/17 04:59:12;;;;;;;2.97;1.50;;;15.80;83.20;;;;;;5089986;28;20529;-62
2022/07/17 05:01:41;;;;;;;8.87;2.60;;;15.60;83.60;;;;;;5089510;28;20447;-62
2022/07/17 05:04:08;;;;;;;4.27;1.83;;;15.60;83.90;;;;;;5089429;28;20451;-62
2022/07/17 05:06:36;;;;;;;3.00;1.83;;;15.50;84.10;;;;;;5089399;28;20462;-61
2022/07/17 05:09:03;;;;;;;3.13;1.77;;;15.40;84.70;;;;;;5089611;28;20572;-62
2022/07/17 05:11:30;;;;;;;5.03;1.97;;;15.40;85.00;;;;;;5089509;28;20473;-62
2022/07/17 05:13:57;;;;;;;4.77;1.83;;;15.40;85.00;;;;;;5089726;28;20442;-61
2022/07/17 05:16:25;;;;;;;3.33;1.53;;;15.50;85.00;;;;;;5089127;28;20528;-62
2022/07/17 05:18:54;;;;;;;3.10;1.40;;;15.60;84.30;;;;;;5089208;28;20450;-63
2022/07/17 05:21:21;;;;;;;5.93;1.70;;;15.50;83.60;;;;;;5075822;28;20470;-61
2022/07/17 05:23:48;;;;;;;4.80;1.57;;;15.50;83.30;;;;;;5075640;28;20946;-63
2022/07/17 05:26:16;;;;;;;6.93;1.93;;;15.40;83.30;;;;;;5075851;28;20467;-61
2022/07/17 05:28:43;;;;;;;5.33;1.67;;;15.30;83.60;;;;;;5075845;28;20578;-62
2022/07/17 05:31:10;;;;;;;4.00;1.67;;;15.20;83.90;;;;;;5075768;28;20447;-62
2022/07/17 05:33:37;;;;;;;7.87;2.60;;;15.20;84.10;;;;;;5076047;28;20509;-62
2022/07/17 05:36:06;;;;;;;3.87;1.50;;;15.20;84.40;;;;;;5075923;28;20517;-61
2022/07/17 05:38:34;;;;;;;4.80;1.70;;;15.20;84.30;;;;;;5075536;28;20965;-62
2022/07/17 05:41:01;;;;;;;8.73;1.80;;;15.30;84.30;;;;;;5064253;28;20445;-61
2022/07/17 05:43:29;;;;;;;4.57;1.80;;;15.30;84.40;;;;;;5073475;28;20444;-62
2022/07/17 05:45:56;;;;;;;5.70;1.90;;;15.20;84.30;;;;;;5075059;28;20479;-62
2022/07/17 05:48:24;;;;;;;5.17;1.53;;;15.30;84.60;;;;;;5073152;28;21059;-61
2022/07/17 05:50:51;;;;;;;7.63;1.77;;;15.30;84.40;;;;;;5073805;28;20447;-63
2022/07/17 05:53:20;;;;;;;3.40;1.40;;;15.40;84.40;;;;;;5070591;28;20451;-62
2022/07/17 05:55:47;;;;;;;5.00;1.57;;;15.40;84.10;;;;;;5072880;28;20459;-63
2022/07/17 05:58:15;;;;;;;4.90;1.43;;;15.40;83.60;;;;;;5059490;28;20444;-63
2022/07/17 06:00:42;;;;;;;3.33;1.73;;;15.40;83.60;;;;;;5070827;28;20469;-61
2022/07/17 06:03:10;;;;;;;6.07;2.20;;;15.40;83.60;;;;;;5060205;28;20444;-62
2022/07/17 06:05:37;;;;;;;11.87;2.30;;;15.30;83.50;;;;;;5077965;28;20439;-62
2022/07/17 06:08:05;;;;;;;8.93;2.13;;;15.30;83.60;;;;;;5084336;28;20505;-63
2022/07/17 06:10:33;;;;;;;3.83;1.73;;;15.40;83.60;;;;;;5060898;28;20471;-62
2022/07/17 06:13:01;;;;;;;4.20;2.00;;;15.50;83.30;;;;;;5055585;28;20494;-62
2022/07/17 06:15:28;;;;;;;4.73;2.03;;;15.50;83.00;;;;;;5056161;28;20824;-62
2022/07/17 06:17:55;;;;;;;5.60;1.90;;;15.60;83.10;;;;;;5070817;28;20490;-61
2022/07/17 06:20:23;;;;;;;7.17;2.57;;;15.70;82.60;;;;;;5058196;28;20441;-63
2022/07/17 06:22:50;;;;;;;5.33;1.70;;;15.70;81.80;;;;;;5073089;28;20479;-61
2022/07/17 06:25:17;;;;;;;5.43;1.30;;;15.80;81.30;;;;;;5060632;28;20448;-62
2022/07/17 06:27:46;;;;;;;3.53;1.60;;;15.90;81.00;;;;;;5070662;28;20525;-62
2022/07/17 06:30:15;;;;;;;4.13;1.80;;;16.00;80.10;;;;;;5055402;28;20468;-61
2022/07/17 06:32:43;;;;;;;4.07;1.60;;;16.10;79.50;;;;;;5054986;28;20448;-63
2022/07/17 06:35:11;;;;;;;4.40;2.00;;;16.20;78.90;;;;;;5054633;28;20996;-62
2022/07/17 06:37:38;;;;;;;5.73;1.80;;;16.40;78.00;;;;;;5055355;28;20463;-62
2022/07/17 06:40:07;;;;;;;2.73;1.90;;;16.50;76.80;;;;;;5063316;28;20864;-62
2022/07/17 06:42:34;;;;;;;3.73;1.43;;;16.50;76.40;;;;;;5064034;28;20467;-62
2022/07/17 06:45:03;;;;;;;3.60;1.40;;;16.60;75.60;;;;;;5060824;28;20928;-62
2022/07/17 06:47:31;;;;;;;3.50;2.03;;;16.80;75.00;;;;;;5062868;28;20496;-62
2022/07/17 06:49:58;;;;;;;2.67;1.60;;;16.90;73.70;;;;;;5061415;28;20502;-61
2022/07/17 06:52:25;;;;;;;3.00;1.60;;;17.10;72.90;;;;;;5060945;28;20436;-61
2022/07/17 06:54:52;;;;;;;5.70;1.50;;;17.30;71.80;;;;;;5059486;28;20476;-62
2022/07/17 06:57:20;;;;;;;5.50;1.40;;;17.50;70.60;;;;;;5057387;28;20503;-61
2022/07/17 06:59:47;;;;;;;3.30;1.40;;;17.60;69.60;;;;;;5056193;28;20449;-61
2022/07/17 07:02:16;;;;;;;3.57;1.30;;;17.60;68.80;;;;;;5055474;28;20498;-61
2022/07/17 07:04:43;;;;;;;5.83;1.40;;;17.60;68.50;;;;;;5060172;28;20993;-62
2022/07/17 07:07:10;;;;;;;3.60;1.40;;;17.70;67.70;;;;;;5056326;28;20474;-61
2022/07/17 07:09:38;;;;;;;3.83;1.60;;;17.80;67.00;;;;;;5054938;28;20564;-62
2022/07/17 07:12:07;;;;;;;5.93;1.10;;;17.70;66.40;;;;;;5057039;28;20502;-61
2022/07/17 07:14:34;;;;;;;6.80;1.40;;;17.80;66.20;;;;;;5057488;28;20552;-62
2022/07/17 07:17:01;;;;;;;3.93;1.40;;;17.80;65.70;;;;;;5063088;28;20468;-62
2022/07/17 07:19:30;;;;;;;3.43;1.43;;;17.70;65.70;;;;;;5062242;28;20502;-62
2022/07/17 07:21:58;;;;;;;4.07;1.13;;;17.60;65.70;;;;;;5062275;28;20871;-61
2022/07/17 07:24:25;;;;;;;3.90;1.63;;;17.70;65.50;;;;;;5055553;28;20801;-62
2022/07/17 07:26:52;;;;;;;6.53;1.27;;;17.80;65.40;;;;;;5054355;28;20582;-62
2022/07/17 07:29:20;;;;;;;1.83;1.07;;;17.80;65.00;;;;;;5054576;28;20476;-61
2022/07/17 07:31:47;;;;;;;3.33;1.60;;;17.90;64.80;;;;;;5053101;28;20506;-62
2022/07/17 07:34:15;;;;;;;2.57;1.30;;;17.90;64.40;;;;;;5064006;28;20448;-62
2022/07/17 07:36:43;;;;;;;3.43;1.50;;;17.80;63.90;;;;;;5054081;28;20459;-61
2022/07/17 07:39:11;;;;;;;3.67;1.50;;;17.70;63.60;;;;;;5053469;28;20518;-62
2022/07/17 07:41:38;;;;;;;5.57;1.40;;;17.70;63.60;;;;;;5052936;28;20452;-62
2022/07/17 07:44:06;;;;;;;2.83;1.27;;;17.70;63.60;;;;;;5053225;28;20506;-61
2022/07/17 07:46:35;;;;;;;4.07;1.40;;;17.90;63.20;;;;;;5052962;28;20478;-61
2022/07/17 07:49:02;;;;;;;4.57;1.27;;;18.20;63.20;;;;;;5052836;28;20476;-62
2022/07/17 07:51:30;;;;;;;7.10;1.50;;;18.50;61.30;;;;;;5066834;28;20974;-62
2022/07/17 07:53:58;;;;;;;4.40;1.50;;;18.90;60.00;;;;;;5074816;28;20439;-62
2022/07/17 07:56:26;;;;;;;4.53;1.20;;;19.40;58.90;;;;;;5075581;28;20814;-62
2022/07/17 07:58:53;;;;;;;1.47;1.07;;;19.80;57.30;;;;;;5077817;28;20435;-62
2022/07/17 08:01:20;;;;;;;3.93;1.33;;;19.90;56.40;;;;;;5075440;28;20508;-61
2022/07/17 08:03:48;;;;;;;3.90;1.47;;;19.70;56.00;;;;;;5073214;28;20508;-62
2022/07/17 08:06:15;;;;;;;3.23;1.80;;;19.60;56.40;;;;;;5072359;28;20807;-61
2022/07/17 08:08:42;;;;;;;2.30;1.43;;;19.50;56.50;;;;;;5074239;28;20836;-63
2022/07/17 08:11:11;;;;;;;4.57;1.47;;;19.40;56.60;;;;;;5071578;28;20476;-62
2022/07/17 08:13:39;;;;;;;2.70;1.50;;;19.50;56.50;;;;;;5054928;28;20503;-63
2022/07/17 08:16:07;;;;;;;5.00;1.30;;;19.50;56.20;;;;;;5061171;28;20819;-63
2022/07/17 08:18:35;;;;;;;1.60;0.97;;;19.50;56.10;;;;;;5073871;28;20475;-62
2022/07/17 08:21:02;;;;;;;4.33;1.23;;;19.50;56.00;;;;;;5065068;28;20451;-61
2022/07/17 08:23:40;;;;;;;7.43;1.73;;;19.60;55.80;;;;;;5136915;22;20481;-59
2022/07/17 08:26:07;;;;;;;3.40;1.30;;;19.60;55.60;;;;;;5033403;28;20437;-60
2022/07/17 08:28:36;;;;;;;4.63;1.47;;;19.70;55.50;;;;;;5033623;28;20528;-59
2022/07/17 08:31:03;;;;;;;1.87;1.00;;;19.90;55.10;;;;;;5032498;28;20508;-61
2022/07/17 08:33:31;;;;;;;3.53;1.30;;;20.10;54.40;;;;;;5032706;28;20473;-60
2022/07/17 08:35:58;;;;;;;3.00;1.00;;;20.30;53.70;;;;;;5032911;28;20442;-60
2022/07/17 08:38:25;;;;;;;7.30;1.37;;;20.30;53.40;;;;;;5032835;28;20467;-60
2022/07/17 08:40:54;;;;;;;3.43;1.50;;;20.30;53.00;;;;;;5032403;28;20447;-61
2022/07/17 08:43:22;;;;;;;2.50;1.00;;;20.10;52.80;;;;;;5032806;28;20528;-60
2022/07/17 08:45:51;;;;;;;2.40;1.47;;;20.10;53.00;;;;;;5033089;28;20888;-60
2022/07/17 08:48:20;;;;;;;2.70;1.30;;;20.00;52.80;;;;;;5033075;28;20505;-61
2022/07/17 08:50:48;;;;;;;3.30;1.60;;;19.90;52.80;;;;;;5032586;28;20483;-60
2022/07/17 08:53:15;;;;;;;3.57;1.30;;;19.90;53.00;;;;;;5032495;28;21058;-60
2022/07/17 08:55:43;;;;;;;5.40;1.77;;;19.90;53.30;;;;;;5034885;28;20533;-60
2022/07/17 08:58:16;;;;;;;3.83;1.17;;;19.90;53.40;;;;;;5036228;28;20480;-61
2022/07/17 09:00:43;;;;;;;6.03;1.73;;;20.00;53.20;;;;;;5036430;28;20427;-61
2022/07/17 09:03:12;;;;;;;2.87;1.50;;;20.20;53.10;;;;;;5035457;28;20520;-60
2022/07/17 09:05:41;;;;;;;4.63;1.40;;;20.30;52.80;;;;;;5035939;28;20451;-60
2022/07/17 09:08:10;;;;;;;3.80;1.57;;;20.40;52.60;;;;;;5036197;28;20481;-61
2022/07/17 09:10:39;;;;;;;3.97;1.30;;;20.50;52.30;;;;;;5036371;28;20608;-59
2022/07/17 09:13:17;;;;;;;2.87;1.40;;;20.70;52.00;;;;;;5036219;28;20471;-61
2022/07/17 09:15:45;;;;;;;4.60;1.83;;;20.80;51.80;;;;;;5036153;28;20476;-59
2022/07/17 09:18:14;;;;;;;2.63;1.20;;;20.80;51.90;;;;;;5034834;28;20446;-61
2022/07/17 09:20:46;;;;;;;7.60;1.80;;;20.70;52.10;;;;;;5035699;28;20952;-60
2022/07/17 09:23:13;;;;;;;3.57;1.20;;;20.70;52.10;;;;;;5035580;28;20482;-61
2022/07/17 09:25:42;;;;;;;5.33;1.73;;;20.70;52.10;;;;;;5035539;28;20450;-60
2022/07/17 09:28:10;;;;;;;3.97;2.03;;;20.70;52.30;;;;;;5035709;28;20458;-61
2022/07/17 09:30:40;;;;;;;4.67;1.40;;;20.80;52.10;;;;;;5035958;28;20900;-60
2022/07/17 09:33:12;;;;;;;4.03;1.20;;;20.90;52.10;;;;;;5036246;28;20502;-60
2022/07/17 09:35:50;;;;;;;4.27;1.30;;;21.00;51.80;;;;;;5036572;28;20510;-60
2022/07/17 09:38:30;;;;;;;3.83;1.20;;;21.00;51.80;;;;;;5036200;28;20474;-60
2022/07/17 09:41:12;;;;;;;8.43;1.50;;;21.00;51.70;;;;;;5036834;28;20876;-60
2022/07/17 09:43:44;;;;;;;4.67;1.63;;;21.00;51.90;;;;;;5035951;28;20843;-60
2022/07/17 09:46:15;;;;;;;4.83;1.27;;;21.10;51.90;;;;;;5038273;28;20443;-61
2022/07/17 09:48:47;;;;;;;7.13;1.30;;;21.10;51.70;;;;;;5038390;28;20811;-60
2022/07/17 09:51:18;;;;;;;8.70;1.70;;;21.10;51.70;;;;;;5035144;28;20559;-61
2022/07/17 09:53:47;;;;;;;4.60;1.40;;;21.20;51.50;;;;;;5035717;28;20466;-61
2022/07/17 09:56:17;;;;;;;4.10;1.97;;;21.30;51.30;;;;;;5035470;28;20451;-60
2022/07/17 09:58:48;;;;;;;2.70;1.60;;;21.30;51.10;;;;;;5035282;28;20458;-60
2022/07/17 10:01:17;;;;;;;4.00;1.30;;;21.20;50.60;;;;;;5035324;28;20435;-60
2022/07/17 10:03:45;;;;;;;2.50;1.50;;;21.00;50.30;;;;;;5035153;28;20501;-60
2022/07/17 10:06:12;;;;;;;2.20;1.20;;;20.90;50.50;;;;;;5034820;28;20549;-60
2022/07/17 10:08:41;;;;;;;5.87;1.57;;;21.00;50.20;;;;;;5035613;28;20449;-61
2022/07/17 10:11:10;;;;;;;4.83;1.43;;;21.10;50.00;;;;;;5036002;28;20514;-60
2022/07/17 10:13:40;;;;;;;2.00;1.10;;;21.20;49.70;;;;;;5034917;28;20557;-59
2022/07/17 10:16:08;;;;;;;3.03;1.30;;;21.40;49.60;;;;;;5035272;28;20504;-59
2022/07/17 10:18:39;;;;;;;3.87;1.30;;;21.50;49.20;;;;;;5034051;28;20458;-59
2022/07/17 10:21:14;;;;;;;2.03;1.07;;;21.40;48.80;;;;;;5035095;28;20430;-58
2022/07/17 10:23:44;;;;;;;4.40;1.67;;;21.30;48.80;;;;;;5034833;28;20500;-59
2022/07/17 10:26:12;;;;;;;3.83;1.60;;;21.10;48.90;;;;;;5035252;28;20451;-57
2022/07/17 10:28:41;;;;;;;2.20;1.00;;;21.00;49.10;;;;;;5034737;28;20442;-61
2022/07/17 10:31:09;;;;;;;2.50;1.37;;;21.00;49.00;;;;;;5034545;28;20480;-58
2022/07/17 10:33:37;;;;;;;6.00;1.37;;;21.10;48.80;;;;;;5035409;28;20555;-62
2022/07/17 10:36:05;;;;;;;5.20;1.40;;;21.10;48.40;;;;;;5034594;28;20441;-60
2022/07/17 10:38:44;;;;;;;2.30;1.37;;;21.10;48.30;;;;;;5034809;28;20480;-61
2022/07/17 10:41:21;;;;;;;2.50;1.33;;;21.20;48.20;;;;;;5034648;28;20549;-59
2022/07/17 10:43:50;;;;;;;4.43;1.50;;;21.20;47.90;;;;;;5034666;28;20469;-59
2022/07/17 10:46:17;;;;;;;2.03;1.27;;;21.40;47.30;;;;;;5034176;28;21039;-58
2022/07/17 10:48:49;;;;;;;3.07;1.50;;;21.60;47.10;;;;;;5034645;28;20484;-59
2022/07/17 10:51:17;;;;;;;3.87;1.37;;;21.80;46.90;;;;;;5034218;28;20479;-58
2022/07/17 10:53:46;;;;;;;3.50;1.30;;;21.90;46.30;;;;;;5034515;28;20473;-61
2022/07/17 10:56:13;;;;;;;1.83;1.03;;;21.90;45.70;;;;;;5034532;28;20550;-59
2022/07/17 10:58:42;;;;;;;4.27;1.80;;;21.90;45.80;;;;;;5034137;28;20450;-60
2022/07/17 11:01:12;;;;;;;4.17;1.40;;;22.00;45.80;;;;;;5034909;28;20461;-59
2022/07/17 11:03:42;;;;;;;6.30;1.87;;;22.00;45.70;;;;;;5033824;28;20956;-60
2022/07/17 11:06:15;;;;;;;2.00;1.20;;;22.10;45.90;;;;;;5034450;28;20882;-59
2022/07/17 11:08:46;;;;;;;2.63;1.03;;;22.20;45.80;;;;;;5015055;28;20467;-59
2022/07/17 11:11:14;;;;;;;2.50;1.50;;;22.30;45.10;;;;;;5015195;28;20472;-60
2022/07/17 11:13:41;;;;;;;3.37;1.30;;;22.40;44.30;;;;;;5033370;28;20479;-58
2022/07/17 11:16:09;;;;;;;3.13;1.40;;;22.40;44.30;;;;;;5034417;28;20495;-58
2022/07/17 11:18:37;;;;;;;3.70;1.40;;;22.40;44.30;;;;;;5033403;28;20444;-59
2022/07/17 11:21:06;;;;;;;2.60;1.30;;;22.50;44.10;;;;;;5033825;28;20505;-59
2022/07/17 11:23:34;;;;;;;3.23;1.60;;;22.60;43.80;;;;;;5033781;28;20506;-61
2022/07/17 11:26:05;;;;;;;3.07;1.63;;;22.70;43.70;;;;;;5033347;28;20450;-59
2022/07/17 11:28:38;;;;;;;3.27;1.60;;;22.70;43.50;;;;;;5033383;28;20444;-58
2022/07/17 11:31:17;;;;;;;2.87;1.43;;;22.80;43.60;;;;;;5033398;28;20512;-60
2022/07/17 11:33:51;;;;;;;4.13;1.80;;;23.00;43.60;;;;;;5033657;28;20482;-61
2022/07/17 11:36:27;;;;;;;4.83;1.27;;;23.00;43.50;;;;;;5033412;28;20943;-59
2022/07/17 11:38:57;;;;;;;6.23;1.47;;;23.00;43.20;;;;;;5033383;28;20453;-60
2022/07/17 11:41:35;;;;;;;3.63;1.27;;;23.00;43.20;;;;;;5033453;28;20445;-60
2022/07/17 11:44:02;;;;;;;5.17;1.40;;;23.10;43.40;;;;;;5033234;28;21038;-60
2022/07/17 11:46:31;;;;;;;2.97;1.13;;;23.20;43.40;;;;;;5033012;28;20449;-60
2022/07/17 11:48:58;;;;;;;4.60;1.60;;;23.20;43.30;;;;;;5033454;28;20476;-60
2022/07/17 11:51:35;;;;;;;4.73;1.47;;;23.20;43.60;;;;;;5033128;28;20485;-60
2022/07/17 11:54:06;;;;;;;4.33;1.43;;;23.20;43.70;;;;;;5013797;28;20469;-61
2022/07/17 11:56:35;;;;;;;4.07;2.10;;;23.20;43.80;;;;;;5016354;28;20524;-60
2022/07/17 11:59:04;;;;;;;4.00;1.40;;;23.30;43.90;;;;;;5033472;28;20887;-59
2022/07/17 12:01:40;;;;;;;2.70;1.33;;;23.60;43.40;;;;;;5033283;28;20977;-60
2022/07/17 12:04:09;;;;;;;4.43;1.90;;;24.00;42.90;;;;;;5032998;28;20523;-61
2022/07/17 12:06:37;;;;;;;3.00;1.70;;;24.40;42.20;;;;;;5032733;28;20449;-60
2022/07/17 12:09:05;;;;;;;3.30;1.40;;;25.00;41.60;;;;;;5032894;28;20441;-61
2022/07/17 12:11:34;;;;;;;4.63;1.53;;;25.60;40.50;;;;;;5031928;28;20501;-59
2022/07/17 12:14:06;;;;;;;2.47;1.20;;;25.80;39.70;;;;;;5033039;28;20475;-61
2022/07/17 12:16:36;;;;;;;3.10;1.60;;;26.00;39.20;;;;;;5033744;28;20466;-60
2022/07/17 12:19:08;;;;;;;4.47;1.67;;;26.30;38.70;;;;;;5033486;28;20455;-60
2022/07/17 12:21:48;;;;;;;5.53;1.63;;;26.60;38.20;;;;;;5032966;28;20457;-60
2022/07/17 12:24:21;;;;;;;4.07;1.60;;;26.90;37.70;;;;;;5032935;28;20487;-60
2022/07/17 12:26:50;;;;;;;2.90;1.33;;;27.10;37.30;;;;;;5032793;28;20440;-61
2022/07/17 12:29:17;;;;;;;2.53;1.70;;;27.30;36.90;;;;;;5032875;28;20449;-61
2022/07/17 12:31:45;;;;;;;2.17;1.57;;;27.50;36.50;;;;;;5036949;28;20483;-60
2022/07/17 12:34:12;;;;;;;2.73;1.20;;;27.40;36.10;;;;;;5037061;28;20469;-60
2022/07/17 12:36:39;;;;;;;2.40;1.20;;;27.30;36.10;;;;;;5037320;28;20932;-60
2022/07/17 12:39:07;;;;;;;3.20;1.50;;;27.30;35.90;;;;;;5037073;28;20448;-59
2022/07/17 12:41:34;;;;;;;4.93;1.60;;;27.20;35.60;;;;;;5036831;28;20450;-61
2022/07/17 12:44:03;;;;;;;2.33;1.23;;;27.10;36.00;;;;;;5036782;28;20469;-60
2022/07/17 12:46:30;;;;;;;3.60;1.77;;;26.90;36.20;;;;;;5036415;28;20458;-62
2022/07/17 12:48:57;;;;;;;2.10;1.60;;;26.80;36.50;;;;;;5036497;28;20475;-60
2022/07/17 12:51:25;;;;;;;4.63;1.60;;;26.50;36.50;;;;;;5036156;28;20538;-60
2022/07/17 12:53:52;;;;;;;1.97;0.97;;;26.20;36.60;;;;;;5038565;28;20533;-60